• Join FlightAware (Why Join?)
  • Login
  • US Flag 
07:54PM EDT


 

Airport Tracker/Info


-or-


 

Live Flight TrackerFlight Track Log ✈ FLG4058 ✈ 15-May-2013 ✈ KBHM - KDTW

Flight Track Log - Related Links

Times and Time Zones

All times are in EDT time to prevent confusion due to time zone crossing. See the FLG4058 flight status page for this flight to view local times or setup timezone preferences in your user account.

Time Position Orientation Groundspeed Altitude Reporting Facility
EDT Latitude Longitude Course Direction KTS MPH feet Rate Location/Type
11:11AM 33.5400 -86.7978 North 162 186 2,200  Level Atlanta Center
11:12AM 33.5092 -86.8689 243° Southwest 249 287 4,100 1,980 Climbing Atlanta Center
11:13AM 33.8586 -86.7333 North  Level FlightAware Approximate
11:13AM 33.5092 -86.9536 270° West 254 292 6,400  Level Atlanta Center
11:14AM 33.9622 -86.7333 360° North  Level FlightAware Approximate
11:14AM 33.5800 -86.9636 353° North 191 220 8,500  Level Atlanta Center
11:15AM 34.0657 -86.7333 North  Level FlightAware Approximate
11:15AM 33.6619 -86.9364 15° North 219 252 10,400  Level Atlanta Center
11:16AM 34.1691 -86.7315 North  Level FlightAware Approximate
11:16AM 33.7547 -86.9047 16° North 279 321 11,800  Level Atlanta Center
11:18AM 33.9853 -86.8425 13° North 363 418 15,800 1,560 Climbing Memphis Center
11:19AM 34.0872 -86.8358 North 358 412 17,200 1,200 Climbing Memphis Center
11:20AM 34.1892 -86.8292 North 358 412 18,300 1,020 Climbing Memphis Center
11:21AM 34.2956 -86.8197 North 368 423 19,300 960 Climbing Memphis Center
11:22AM 34.4039 -86.8128 North 373 429 20,300 840 Climbing Memphis Center
11:23AM 34.5142 -86.8058 North 384 442 21,000 660 Climbing Memphis Center
11:25AM 34.7236 -86.7883 North 410 472 22,200 840 Climbing Atlanta Center
11:26AM 34.8344 -86.7819 North 410 472 23,500 960 Climbing Atlanta Center
11:27AM 34.9472 -86.7731 North 405 466 24,200 540 Climbing Atlanta Center
11:28AM 35.0886 -86.7636 North 416 479 24,800 480 Climbing Memphis Center
11:29AM 35.1886 -86.7569 North 421 484 25,300 480 Climbing Memphis Center
11:30AM 35.3094 -86.7492 North 421 484 25,800 480 Climbing Memphis Center
11:31AM 35.4300 -86.7389 North 421 484 26,300 480 Climbing Memphis Center
11:32AM 35.5508 -86.7311 North 421 484 26,800 480 Climbing Memphis Center
11:33AM 35.6819 -86.7200 North 421 484 27,300 480 Climbing Memphis Center
11:34AM 35.8047 -86.7122 North 426 490 27,800 540 Climbing Memphis Center
11:35AM 35.9233 -86.7017 North 426 490 28,400 540 Climbing Memphis Center
11:36AM 36.0417 -86.6914 North 421 484 28,900 300 Climbing Memphis Center
11:37AM 36.1606 -86.6861 North 421 484 29,000  Climbing Memphis Center
11:38AM 36.2853 -86.6728 North 427 491 29,000  Level Memphis Center
11:39AM 36.4142 -86.6617 North 445 512 29,000  Level Memphis Center
11:40AM 36.5389 -86.6533 North 452 520 29,000  Level Memphis Center
11:41AM 36.6636 -86.6450 North 452 520 29,000  Level Memphis Center
11:42AM 36.7883 -86.6342 North 452 520 29,000  Level Memphis Center
11:44AM 37.0108 -86.6147 North 449 517 29,000  Level Indianapolis Center
11:45AM 37.1389 -86.6025 North 455 524 29,000  Level Indianapolis Center
11:46AM 37.2875 -86.5906 North 455 524 29,000  Level Indianapolis Center
11:47AM 37.4144 -86.5803 North 453 521 29,000  Level Indianapolis Center
11:48AM 37.5422 -86.5678 North 456 525 29,000  Level Indianapolis Center
11:49AM 37.6589 -86.5589 North 454 522 29,000  Level Indianapolis Center
11:50AM 37.7847 -86.5481 North 453 521 29,000  Level Indianapolis Center
11:51AM 37.9358 -86.5353 North 453 521 29,000  Level Indianapolis Center
11:52AM 38.0617 -86.5228 North 453 521 29,000  Level Indianapolis Center
11:53AM 38.1850 -86.5131 North 446 513 29,000  Level Indianapolis Center
11:54AM 38.3075 -86.5006 North 443 510 29,000  Level Indianapolis Center
11:56AM 38.4297 -86.4908 North 443 510 29,000  Level Indianapolis Center
11:57AM 38.5514 -86.4811 North 440 506 29,000  Level Indianapolis Center
11:58AM 38.6972 -86.4675 North 439 505 29,000  Level Indianapolis Center
11:59AM 38.8200 -86.4561 North 441 507 29,000  Level Indianapolis Center
12:00PM 38.9308 -86.4469 North 441 507 29,000  Level Indianapolis Center
12:01PM 39.0528 -86.4367 North 440 506 29,000  Level Indianapolis Center
12:02PM 39.1969 -86.3994 11° North 442 509 29,000  Level Indianapolis Center
12:03PM 39.3158 -86.3611 14° North 441 507 29,000  Level Indianapolis Center
12:04PM 39.4347 -86.3267 13° North 440 506 29,000  Level Indianapolis Center
12:05PM 39.5531 -86.2906 13° North 439 505 29,000  Level Indianapolis Center
12:06PM 39.6714 -86.2533 14° North 437 503 29,000  Level Indianapolis Center
12:07PM 39.7989 -86.1850 22° Northeast 440 506 29,000  Level Indianapolis Center
12:08PM 39.9006 -86.1006 32° Northeast 444 511 29,000  Level Indianapolis Center
12:09PM 40.0039 -86.0147 32° Northeast 442 509 29,000  Level Indianapolis Center
12:10PM 40.1075 -85.9275 33° Northeast 444 511 29,000  Level Indianapolis Center
12:11PM 40.1922 -85.8567 33° Northeast 446 513 29,000  Level Chicago Center
12:12PM 40.2986 -85.7667 33° Northeast 453 521 29,000  Level Chicago Center
12:13PM 40.4047 -85.6781 32° Northeast 454 522 29,000 -540 Level Chicago Center
12:14PM 40.5319 -85.5697 33° Northeast 456 525 28,000 -1,500 Descending Chicago Center
12:15PM 40.6356 -85.4800 33° Northeast 449 517 26,000 -2,040 Descending Chicago Center
12:16PM 40.7425 -85.3903 32° Northeast 433 498 23,900 -2,040 Descending Chicago Center
12:17PM 40.8419 -85.3022 34° Northeast 431 496 21,900 -1,440 Descending Chicago Center
12:18PM 40.9439 -85.2133 33° Northeast 440 506 21,000 -480 Descending Chicago Center
12:19PM 41.0392 -85.1214 36° Northeast 430 495 21,000  Level Chicago Center
12:20PM 41.1308 -85.0231 39° Northeast 427 491 21,000  Level Chicago Center
12:21PM 41.2403 -84.9056 39° Northeast 424 488 21,000  Level Chicago Center
12:22PM 41.3328 -84.8053 39° Northeast 431 496 21,000  Level Chicago Center
12:23PM 41.4178 -84.7144 39° Northeast 396 456 21,000  Level Chicago Center
12:24PM 41.5017 -84.6247 39° Northeast 390 449 21,000 -60 Level Chicago Center
12:25PM 41.5744 -84.5472 39° Northeast 393 452 20,900 -660 Descending Cleveland Center
12:26PM 41.6569 -84.4522 41° Northeast 388 447 19,900 -1,500 Descending Cleveland Center
12:27PM 41.7150 -84.3361 56° Northeast 377 434 17,900 -2,220 Descending Cleveland Center
12:27PM 41.7244 -84.3003 71° East 398 458 17,100 -2,700 Descending Cleveland Center
12:28PM 41.7589 -84.2050 64° Northeast 372 428 15,200 -2,460 Descending Cleveland Center
12:28PM 41.7881 -84.1369 60° Northeast 387 445 13,900 -2,520 Descending Cleveland Center
12:29PM 41.8064 -84.0822 66° East 372 428 12,700 -1,740 Descending Cleveland Center
12:30PM 41.8483 -84.0036 54° Northeast 352 405 12,000 -720 Descending Cleveland Center
12:30PM 41.8639 -83.9739 55° Northeast 360 414 12,000  Level Cleveland Center
12:31PM 41.9178 -83.9125 40° Northeast 353 406 12,000  Level Cleveland Center
12:31PM 41.9331 -83.8881 50° Northeast 347 399 12,000  Level Cleveland Center
12:31PM 41.9678 -83.8453 42° Northeast 285 328 12,000  Level Cleveland Center
12:32PM 41.9936 -83.8131 43° Northeast 315 362 12,000  Level Cleveland Center
12:33PM 42.0478 -83.7403 45° Northeast 290 334 12,000  Level Cleveland Center
12:33PM 42.0822 -83.7000 41° Northeast 288 331 12,000  Level Cleveland Center
12:34PM 42.1061 -83.6647 48° Northeast 284 327 12,000  Level Cleveland Center
12:34PM 42.1386 -83.6214 45° Northeast 289 333 12,000  Level Cleveland Center
12:35PM 42.1622 -83.5917 43° Northeast 284 327 12,000  Level Cleveland Center
12:36PM 42.2011 -83.5403 44° Northeast 254 292 12,000  Level Cleveland Center
12:36PM 42.2119 -83.5242 48° Northeast 271 312 12,000 -840 Level Cleveland Center
12:37PM 42.2583 -83.5011 20° North 225 259 11,200 -1,200 Descending Cleveland Center
12:37PM 42.2775 -83.4906 22° Northeast 253 291 10,800 -1,980 Descending Cleveland Center
12:38PM 42.3219 -83.4617 26° Northeast 237 273 9,200 -1,980 Descending Cleveland Center
12:39PM 42.3747 -83.4333 22° Northeast 225 259 7,500 -1,800 Descending Cleveland Center
12:40PM 42.4319 -83.4019 22° Northeast 218 251 5,700 -1,500 Descending Cleveland Center
12:41PM 42.4400 -83.3236 82° East 206 237 4,300 -840 Descending Cleveland Center
12:42PM 42.4164 -83.2608 117° Southeast 199 229 4,000 -300 Descending Cleveland Center
12:43PM 42.3600 -83.2667 184° South 179 206 3,700 -300 Descending Cleveland Center